createdAt,value
2023-03-18T00:00:15.950Z,94783.00
2023-03-18T00:02:42.416Z,94783.97
2023-03-18T00:05:10.854Z,94784.78
2023-03-18T00:07:37.296Z,94787.94
2023-03-18T00:10:04.818Z,94786.69
2023-03-18T00:12:32.437Z,94784.06
2023-03-18T00:14:59.268Z,94790.78
2023-03-18T00:17:25.751Z,94794.31
2023-03-18T00:19:52.142Z,94796.84
2023-03-18T00:22:19.144Z,94792.69
2023-03-18T00:24:45.615Z,94793.09
2023-03-18T00:27:11.994Z,94797.75
2023-03-18T00:29:39.153Z,94800.06
2023-03-18T00:32:08.351Z,94804.28
2023-03-18T00:34:34.740Z,94808.19
2023-03-18T00:37:01.137Z,94811.31
2023-03-18T00:39:30.646Z,94799.44
2023-03-18T00:41:57.557Z,94813.19
2023-03-18T00:44:25.469Z,94813.19
2023-03-18T00:46:52.152Z,94814.59
2023-03-18T00:49:19.179Z,94823.66
2023-03-18T00:51:45.992Z,94828.38
2023-03-18T00:54:17.383Z,94823.16
2023-03-18T00:56:44.491Z,94820.25
2023-03-18T00:59:11.327Z,94817.50
2023-03-18T01:01:38.506Z,94819.28
2023-03-18T01:04:05.800Z,94814.16
2023-03-18T01:06:34.532Z,94823.66
2023-03-18T01:09:03.840Z,94824.78
2023-03-18T01:11:30.564Z,94829.31
2023-03-18T01:13:58.697Z,94820.00
2023-03-18T01:16:25.133Z,94822.50
2023-03-18T01:18:52.911Z,94820.56
2023-03-18T01:21:19.683Z,94825.06
2023-03-18T01:23:51.509Z,94813.69
2023-03-18T01:26:18.121Z,94816.91
2023-03-18T01:28:46.568Z,94823.72
2023-03-18T01:31:14.546Z,94814.53
2023-03-18T01:33:42.833Z,94807.63
2023-03-18T01:36:09.785Z,94813.84
2023-03-18T01:38:36.240Z,94816.00
2023-03-18T01:41:10.573Z,94815.63
2023-03-18T01:43:39.895Z,94826.28
2023-03-18T01:46:30.710Z,94821.41
2023-03-18T01:48:58.163Z,94818.97
2023-03-18T01:51:26.574Z,94825.47
2023-03-18T01:53:54.196Z,94824.06
2023-03-18T01:56:21.491Z,94824.69
2023-03-18T01:58:52.212Z,94827.13
2023-03-18T02:01:23.401Z,94826.69
2023-03-18T02:03:51.625Z,94826.13
2023-03-18T02:06:18.783Z,94827.59
2023-03-18T02:08:52.710Z,94835.06
2023-03-18T02:11:19.509Z,94830.38
2023-03-18T02:13:47.542Z,94837.16
2023-03-18T02:16:17.804Z,94833.75
2023-03-18T02:18:50.826Z,94838.84
2023-03-18T02:21:37.154Z,94829.13
2023-03-18T02:24:12.946Z,94833.00
2023-03-18T02:26:46.470Z,94838.63
2023-03-18T02:29:18.996Z,94840.44
2023-03-18T02:31:54.558Z,94842.91
2023-03-18T02:34:25.026Z,94840.44
2023-03-18T02:36:54.121Z,94837.72
2023-03-18T02:39:21.674Z,94851.09
2023-03-18T02:41:48.485Z,94848.88
2023-03-18T02:44:16.210Z,94845.50
2023-03-18T02:47:08.254Z,94845.69
2023-03-18T02:49:34.927Z,94841.31
2023-03-18T02:52:01.456Z,94848.59
2023-03-18T02:54:29.613Z,94853.34
2023-03-18T02:56:56.600Z,94849.50
2023-03-18T02:59:24.848Z,94854.97
2023-03-18T03:01:53.250Z,94860.81
2023-03-18T03:04:23.126Z,94857.69
2023-03-18T03:06:51.488Z,94864.25
2023-03-18T03:09:24.042Z,94873.38
2023-03-18T03:11:50.762Z,94868.22
2023-03-18T03:14:21.614Z,94871.56
2023-03-18T03:16:52.141Z,94878.97
2023-03-18T03:19:18.631Z,94888.63
2023-03-18T03:21:45.075Z,94885.19
2023-03-18T03:24:11.551Z,94883.03
2023-03-18T03:26:39.454Z,94893.91
2023-03-18T03:29:06.626Z,94892.34
2023-03-18T03:31:33.456Z,94889.19
2023-03-18T03:34:00.496Z,94889.97
2023-03-18T03:36:26.902Z,94899.50
2023-03-18T03:38:55.908Z,94891.63
2023-03-18T03:41:22.326Z,94900.69
2023-03-18T03:43:48.980Z,94893.00
2023-03-18T03:46:15.945Z,94899.09
2023-03-18T03:48:42.697Z,94887.56
2023-03-18T03:51:14.284Z,94901.97
2023-03-18T03:53:41.179Z,94894.84
2023-03-18T03:56:08.482Z,94901.13
2023-03-18T03:58:34.987Z,94905.59
2023-03-18T04:01:01.827Z,94909.16
2023-03-18T04:03:29.184Z,94907.78
2023-03-18T04:05:56.590Z,94914.84
2023-03-18T04:08:26.785Z,94916.28
2023-03-18T04:10:53.281Z,94919.56
2023-03-18T04:13:19.843Z,94917.38
2023-03-18T04:15:47.305Z,94918.00
2023-03-18T04:18:17.617Z,94914.22
2023-03-18T04:20:45.521Z,94915.22
2023-03-18T04:23:23.701Z,94920.34
2023-03-18T04:25:51.373Z,94923.84
2023-03-18T04:28:17.893Z,94919.81
2023-03-18T04:30:44.497Z,94914.00
2023-03-18T04:33:15.102Z,94912.16
2023-03-18T04:35:42.913Z,94920.25
2023-03-18T04:38:11.600Z,94916.78
2023-03-18T04:40:38.258Z,94918.19
2023-03-18T04:43:05.539Z,94931.53
2023-03-18T04:45:32.940Z,94920.41
2023-03-18T04:48:01.332Z,94919.50
2023-03-18T04:50:31.032Z,94922.53
2023-03-18T04:52:58.138Z,94922.88
2023-03-18T04:55:27.829Z,94921.09
2023-03-18T04:57:54.882Z,94914.25
2023-03-18T05:00:24.667Z,94921.31
2023-03-18T05:03:00.850Z,94915.50
2023-03-18T05:05:27.552Z,94915.41
2023-03-18T05:07:54.426Z,94916.91
2023-03-18T05:10:21.819Z,94915.72
2023-03-18T05:12:49.072Z,94909.31
2023-03-18T05:15:19.564Z,94919.00
2023-03-18T05:17:52.882Z,94911.78
2023-03-18T05:20:19.649Z,94921.91
2023-03-18T05:22:47.008Z,94925.84
2023-03-18T05:25:20.578Z,94925.75
2023-03-18T05:27:49.522Z,94930.59
2023-03-18T05:30:26.545Z,94921.44
2023-03-18T05:32:56.603Z,94926.47
2023-03-18T05:35:39.259Z,94928.84
2023-03-18T05:38:07.649Z,94922.03
2023-03-18T05:40:35.953Z,94931.53
2023-03-18T05:43:10.633Z,94929.97
2023-03-18T05:45:52.050Z,94927.72
2023-03-18T05:48:25.721Z,94938.28
2023-03-18T05:50:58.722Z,94935.38
2023-03-18T05:53:28.626Z,94939.59
2023-03-18T05:56:06.355Z,94941.13
2023-03-18T05:58:34.498Z,94944.25
2023-03-18T06:01:21.910Z,94942.91
2023-03-18T06:03:51.278Z,94944.97
2023-03-18T06:06:19.993Z,94939.81
2023-03-18T06:08:48.519Z,94939.72
2023-03-18T06:11:17.052Z,94945.22
2023-03-18T06:13:45.153Z,94936.94
2023-03-18T06:16:14.342Z,94931.50
2023-03-18T06:18:42.261Z,94946.84
2023-03-18T06:21:12.942Z,94933.69
2023-03-18T06:23:40.829Z,94949.66
2023-03-18T06:26:08.952Z,94948.50
2023-03-18T06:28:46.079Z,94939.88
2023-03-18T06:31:15.628Z,94938.28
2023-03-18T06:33:43.479Z,94941.47
2023-03-18T06:36:16.553Z,94937.25
2023-03-18T06:38:48.013Z,94944.88
2023-03-18T06:41:16.337Z,94953.84
2023-03-18T06:43:58.536Z,94949.47
2023-03-18T06:46:27.392Z,94942.31
2023-03-18T06:48:55.695Z,94941.53
2023-03-18T06:51:30.484Z,94942.69
2023-03-18T06:53:59.227Z,94945.16
2023-03-18T06:56:30.631Z,94946.78
2023-03-18T06:59:10.826Z,94955.28
2023-03-18T07:01:39.809Z,94942.50
2023-03-18T07:04:08.228Z,94954.34
2023-03-18T07:06:38.076Z,94950.84
2023-03-18T07:09:06.616Z,94942.00
2023-03-18T07:11:34.603Z,94946.41
2023-03-18T07:14:08.287Z,94947.19
2023-03-18T07:16:37.231Z,94954.28
2023-03-18T07:19:05.392Z,94949.19
2023-03-18T07:21:33.308Z,94952.94
2023-03-18T07:24:03.928Z,94955.31
2023-03-18T07:26:31.839Z,94957.88
2023-03-18T07:28:59.624Z,94957.88
2023-03-18T07:31:28.211Z,94957.69
2023-03-18T07:33:57.315Z,94956.31
2023-03-18T07:36:25.259Z,94960.66
2023-03-18T07:38:53.104Z,94961.25
2023-03-18T07:41:22.345Z,94968.16
2023-03-18T07:43:50.139Z,94964.00
2023-03-18T07:46:18.211Z,94971.06
2023-03-18T07:48:46.629Z,94970.66
2023-03-18T07:51:15.480Z,94970.97
2023-03-18T07:53:43.602Z,94962.28
2023-03-18T07:56:12.052Z,94967.75
2023-03-18T07:58:41.685Z,94967.81
2023-03-18T08:01:16.541Z,94970.50
2023-03-18T08:03:44.747Z,94976.72
2023-03-18T08:06:12.587Z,94967.22
2023-03-18T08:08:42.085Z,94974.91
2023-03-18T08:11:10.219Z,94973.13
2023-03-18T08:13:38.818Z,94977.56
2023-03-18T08:16:09.328Z,94969.50
2023-03-18T08:18:37.331Z,94975.13
2023-03-18T08:21:06.044Z,94982.78
2023-03-18T08:23:33.896Z,94982.94
2023-03-18T08:26:01.655Z,94983.59
2023-03-18T08:28:29.532Z,94976.06
2023-03-18T08:30:59.163Z,94976.56
2023-03-18T08:33:29.120Z,94980.03
2023-03-18T08:35:57.970Z,94972.38
2023-03-18T08:38:26.412Z,94981.16
2023-03-18T08:40:54.167Z,94974.06
2023-03-18T08:43:22.434Z,94970.78
2023-03-18T08:45:53.924Z,94970.66
2023-03-18T08:48:23.502Z,94977.53
2023-03-18T08:50:53.606Z,94977.53
2023-03-18T08:53:21.731Z,94976.91
2023-03-18T08:55:49.563Z,94982.25
2023-03-18T08:58:18.423Z,94975.91
2023-03-18T09:00:46.788Z,94970.84
2023-03-18T09:03:15.844Z,94974.81
2023-03-18T09:05:44.073Z,94973.25
2023-03-18T09:08:13.525Z,94974.09
2023-03-18T09:10:41.522Z,94975.94
2023-03-18T09:13:09.412Z,94967.66
2023-03-18T09:15:37.160Z,94967.22
2023-03-18T09:18:11.623Z,94971.69
2023-03-18T09:20:40.208Z,94964.13
2023-03-18T09:23:08.277Z,94959.88
2023-03-18T09:25:37.413Z,94963.34
2023-03-18T09:28:05.590Z,94960.72
2023-03-18T09:30:34.729Z,94972.84
2023-03-18T09:33:02.835Z,94971.59
2023-03-18T09:35:30.807Z,94971.00
2023-03-18T09:37:58.824Z,94976.78
2023-03-18T09:40:29.436Z,94962.34
2023-03-18T09:43:14.344Z,94964.94
2023-03-18T09:45:50.715Z,94966.31
2023-03-18T09:48:50.076Z,94957.19
2023-03-18T09:51:33.230Z,94953.03
2023-03-18T09:54:06.952Z,94957.69
2023-03-18T09:56:38.197Z,94958.50
2023-03-18T09:59:17.824Z,94965.31
2023-03-18T10:01:49.549Z,94964.91
2023-03-18T10:04:21.629Z,94964.38
2023-03-18T10:06:52.617Z,94976.31
2023-03-18T10:09:24.540Z,94984.31
2023-03-18T10:11:54.878Z,94975.03
2023-03-18T10:14:37.244Z,94964.63
2023-03-18T10:17:16.149Z,94965.38
2023-03-18T10:19:48.282Z,94964.75
2023-03-18T10:22:33.793Z,94964.88
2023-03-18T10:25:11.214Z,94957.44
2023-03-18T10:27:50.299Z,94953.00
2023-03-18T10:30:39.538Z,94967.94
2023-03-18T10:33:18.931Z,94957.53
2023-03-18T10:35:52.792Z,94959.78
2023-03-18T10:38:25.226Z,94956.22
2023-03-18T10:40:53.911Z,94949.91
2023-03-18T10:43:26.186Z,94953.88
2023-03-18T10:46:02.071Z,94951.41
2023-03-18T10:48:33.837Z,94951.66
2023-03-18T10:51:10.830Z,94939.31
2023-03-18T10:53:45.545Z,94942.13
2023-03-18T10:56:14.912Z,94932.19
2023-03-18T10:58:43.766Z,94930.28
2023-03-18T11:01:17.575Z,94927.28
2023-03-18T11:03:54.553Z,94934.19
2023-03-18T11:06:26.382Z,94918.28
2023-03-18T11:09:02.994Z,94921.25
2023-03-18T11:11:34.668Z,94918.41
2023-03-18T11:14:05.155Z,94913.19
2023-03-18T11:16:40.450Z,94915.94
2023-03-18T11:19:23.462Z,94899.34
2023-03-18T11:22:02.332Z,94898.03
2023-03-18T11:24:39.443Z,94900.06
2023-03-18T11:27:25.936Z,94907.75
2023-03-18T11:29:57.778Z,94894.63
2023-03-18T11:32:29.063Z,94891.91
2023-03-18T11:34:58.782Z,94889.97
2023-03-18T11:37:34.403Z,94893.94
2023-03-18T11:40:21.114Z,94887.81
2023-03-18T11:42:54.728Z,94887.63
2023-03-18T11:45:33.154Z,94878.53
2023-03-18T11:48:03.648Z,94876.50
2023-03-18T11:50:41.627Z,94865.94
2023-03-18T11:53:14.794Z,94865.56
2023-03-18T11:55:49.054Z,94857.78
2023-03-18T11:58:43.081Z,94858.50
2023-03-18T12:01:18.597Z,94861.66
2023-03-18T12:04:10.191Z,94856.00
2023-03-18T12:06:44.885Z,94845.53
2023-03-18T12:09:18.780Z,94842.31
2023-03-18T12:12:10.044Z,94851.03
2023-03-18T12:14:44.689Z,94839.16
2023-03-18T12:17:23.451Z,94847.53
2023-03-18T12:20:10.489Z,94850.25
2023-03-18T12:22:55.157Z,94839.72
2023-03-18T12:25:40.861Z,94842.16
2023-03-18T12:28:20.062Z,94847.84
2023-03-18T12:31:05.085Z,94845.81
2023-03-18T12:33:50.868Z,94849.72
2023-03-18T12:36:30.073Z,94846.13
2023-03-18T12:39:11.163Z,94842.38
2023-03-18T12:41:51.396Z,94835.56
2023-03-18T12:44:33.496Z,94823.91
2023-03-18T12:47:06.650Z,94838.63
2023-03-18T12:49:38.783Z,94836.06
2023-03-18T12:52:12.134Z,94840.81
2023-03-18T12:54:44.191Z,94845.59
2023-03-18T12:57:16.950Z,94831.22
2023-03-18T12:59:49.429Z,94832.53
2023-03-18T13:02:29.548Z,94838.66
2023-03-18T13:05:01.707Z,94837.56
2023-03-18T13:07:39.072Z,94835.31
2023-03-18T13:10:21.718Z,94840.16
2023-03-18T13:12:52.934Z,94842.59
2023-03-18T13:15:29.234Z,94839.56
2023-03-18T13:18:01.621Z,94829.19
2023-03-18T13:20:33.215Z,94833.91
2023-03-18T13:23:25.899Z,94831.56
2023-03-18T13:26:07.429Z,94829.00
2023-03-18T13:29:05.548Z,94826.13
2023-03-18T13:31:46.538Z,94813.63
2023-03-18T13:34:59.169Z,94814.16
2023-03-18T13:37:57.564Z,94811.56
2023-03-18T13:40:38.949Z,94813.38
2023-03-18T13:43:14.112Z,94806.84
2023-03-18T13:45:46.927Z,94808.13
2023-03-18T13:48:18.279Z,94810.75
2023-03-18T13:50:48.293Z,94810.22
2023-03-18T13:53:25.325Z,94793.06
2023-03-18T13:56:05.952Z,94787.09
2023-03-18T13:58:44.736Z,94787.06
2023-03-18T14:01:29.854Z,94786.81
2023-03-18T14:04:02.012Z,94788.94
2023-03-18T14:06:56.477Z,94789.44
2023-03-18T14:09:36.511Z,94781.88
2023-03-18T14:12:19.220Z,94778.47
2023-03-18T14:15:09.326Z,94773.56
2023-03-18T14:17:46.626Z,94772.53
2023-03-18T14:20:23.766Z,94763.06
2023-03-18T14:22:53.155Z,94763.41
2023-03-18T14:25:31.731Z,94769.38
2023-03-18T14:28:14.676Z,94771.19
2023-03-18T14:30:48.462Z,94768.06
2023-03-18T14:33:36.112Z,94765.75
2023-03-18T14:36:10.322Z,94770.19
2023-03-18T14:38:50.618Z,94764.69
2023-03-18T14:41:23.543Z,94770.69
2023-03-18T14:44:03.474Z,94748.00
2023-03-18T14:46:35.543Z,94768.31
2023-03-18T14:49:04.569Z,94759.19
2023-03-18T14:51:32.731Z,94760.88
2023-03-18T14:54:05.070Z,94758.34
2023-03-18T14:56:41.028Z,94749.22
2023-03-18T14:59:17.440Z,94745.72
2023-03-18T15:01:48.113Z,94746.03
2023-03-18T15:04:19.827Z,94746.78
2023-03-18T15:06:47.774Z,94745.78
2023-03-18T15:09:20.672Z,94748.34
2023-03-18T15:11:48.977Z,94744.41
2023-03-18T15:14:23.703Z,94748.88
2023-03-18T15:16:51.803Z,94741.91
2023-03-18T15:19:20.504Z,94744.34
2023-03-18T15:21:48.717Z,94745.28
2023-03-18T15:24:22.335Z,94746.00
2023-03-18T15:26:58.045Z,94739.81
2023-03-18T15:29:31.499Z,94739.13
2023-03-18T15:32:10.873Z,94751.22
2023-03-18T15:34:42.241Z,94746.50
2023-03-18T15:37:26.998Z,94747.28
2023-03-18T15:39:58.849Z,94750.19
2023-03-18T15:42:27.330Z,94754.34
2023-03-18T15:45:00.489Z,94755.19
2023-03-18T15:47:30.544Z,94753.41
2023-03-18T15:50:00.427Z,94741.81
2023-03-18T15:52:33.372Z,94740.88
2023-03-18T15:55:02.404Z,94740.69
2023-03-18T15:57:34.866Z,94742.22
2023-03-18T16:00:08.496Z,94742.75
2023-03-18T16:02:39.974Z,94746.41
2023-03-18T16:05:09.270Z,94737.03
2023-03-18T16:07:37.026Z,94746.13
2023-03-18T16:10:05.338Z,94747.28
2023-03-18T16:12:35.238Z,94753.72
2023-03-18T16:15:07.916Z,94758.00
2023-03-18T16:17:35.746Z,94753.44
2023-03-18T16:20:06.476Z,94762.00
2023-03-18T16:22:34.331Z,94752.38
2023-03-18T16:25:02.212Z,94751.63
2023-03-18T16:27:39.325Z,94752.25
2023-03-18T16:30:19.205Z,94755.84
2023-03-18T16:32:47.727Z,94761.91
2023-03-18T16:35:16.857Z,94760.09
2023-03-18T16:37:46.974Z,94771.78
2023-03-18T16:40:18.106Z,94764.63
2023-03-18T16:42:47.969Z,94775.66
2023-03-18T16:45:19.859Z,94772.31
2023-03-18T16:47:50.007Z,94777.75
2023-03-18T16:50:19.970Z,94784.53
2023-03-18T16:52:48.339Z,94786.94
2023-03-18T16:55:19.304Z,94792.44
2023-03-18T16:57:50.579Z,94794.56
2023-03-18T17:00:23.879Z,94794.78
2023-03-18T17:02:53.638Z,94796.47
2023-03-18T17:05:22.445Z,94796.66
2023-03-18T17:07:51.577Z,94814.03
2023-03-18T17:10:21.424Z,94800.75
2023-03-18T17:12:53.561Z,94805.25
2023-03-18T17:15:28.738Z,94811.00
2023-03-18T17:17:58.544Z,94816.47
2023-03-18T17:20:28.419Z,94812.91
2023-03-18T17:22:56.565Z,94813.19
2023-03-18T17:25:27.154Z,94820.00
2023-03-18T17:27:57.528Z,94820.13
2023-03-18T17:30:33.423Z,94827.31
2023-03-18T17:33:02.242Z,94830.25
2023-03-18T17:35:30.528Z,94825.41
2023-03-18T17:37:59.196Z,94816.34
2023-03-18T17:40:29.911Z,94811.75
2023-03-18T17:42:57.838Z,94813.22
2023-03-18T17:45:29.926Z,94811.44
2023-03-18T17:48:14.470Z,94814.56
2023-03-18T17:50:44.197Z,94816.78
2023-03-18T17:53:24.275Z,94814.69
2023-03-18T17:55:53.423Z,94809.97
2023-03-18T17:58:23.891Z,94806.72
2023-03-18T18:00:54.098Z,94813.66
2023-03-18T18:03:25.717Z,94811.63
2023-03-18T18:05:54.521Z,94809.41
2023-03-18T18:08:23.239Z,94805.13
2023-03-18T18:10:51.587Z,94814.53
2023-03-18T18:13:22.162Z,94815.53
2023-03-18T18:15:51.555Z,94812.63
2023-03-18T18:18:26.231Z,94810.13
2023-03-18T18:20:57.034Z,94816.88
2023-03-18T18:23:31.131Z,94809.31
2023-03-18T18:26:00.977Z,94816.16
2023-03-18T18:28:34.055Z,94813.75
2023-03-18T18:31:03.404Z,94813.41
2023-03-18T18:33:33.312Z,94816.78
2023-03-18T18:36:01.511Z,94818.66
2023-03-18T18:38:29.810Z,94814.72
2023-03-18T18:40:59.063Z,94816.38
2023-03-18T18:43:27.594Z,94817.59
2023-03-18T18:45:57.511Z,94818.94
2023-03-18T18:48:28.540Z,94812.81
2023-03-18T18:50:58.502Z,94813.16
2023-03-18T18:53:28.387Z,94815.09
2023-03-18T18:55:58.876Z,94811.09
2023-03-18T18:58:29.704Z,94809.88
2023-03-18T19:01:00.796Z,94806.84
2023-03-18T19:03:31.446Z,94813.16
2023-03-18T19:06:02.342Z,94813.09
2023-03-18T19:08:32.082Z,94820.00
2023-03-18T19:11:02.716Z,94820.66
2023-03-18T19:13:33.091Z,94812.94
2023-03-18T19:16:04.612Z,94815.84
2023-03-18T19:18:38.803Z,94818.03
2023-03-18T19:21:08.834Z,94814.75
2023-03-18T19:23:37.712Z,94819.53
2023-03-18T19:26:07.413Z,94817.00
2023-03-18T19:29:01.374Z,94824.38
2023-03-18T19:31:32.252Z,94841.03
2023-03-18T19:34:00.762Z,94832.66
2023-03-18T19:36:32.514Z,94842.41
2023-03-18T19:39:01.757Z,94845.19
2023-03-18T19:41:30.244Z,94852.75
2023-03-18T19:44:04.030Z,94844.13
2023-03-18T19:46:36.968Z,94839.97
2023-03-18T19:49:10.514Z,94841.94
2023-03-18T19:51:39.720Z,94839.44
2023-03-18T19:54:22.523Z,94841.06
2023-03-18T19:56:51.091Z,94835.38
2023-03-18T19:59:21.697Z,94837.53
2023-03-18T20:01:49.868Z,94836.56
2023-03-18T20:04:19.277Z,94834.00
2023-03-18T20:06:49.100Z,94843.66
2023-03-18T20:09:17.960Z,94835.78
2023-03-18T20:11:46.290Z,94845.47
2023-03-18T20:14:37.568Z,94839.38
2023-03-18T20:17:28.642Z,94842.94
2023-03-18T20:19:57.531Z,94838.00
2023-03-18T20:22:29.789Z,94851.63
2023-03-18T20:24:57.711Z,94841.78
2023-03-18T20:27:25.557Z,94850.84
2023-03-18T20:29:53.413Z,94841.22
2023-03-18T20:32:21.224Z,94837.25
2023-03-18T20:34:49.018Z,94841.56
2023-03-18T20:37:25.181Z,94843.56
2023-03-18T20:39:54.624Z,94842.59
2023-03-18T20:42:22.706Z,94844.16
2023-03-18T20:44:50.593Z,94845.53
2023-03-18T20:47:18.434Z,94841.00
2023-03-18T20:49:46.529Z,94843.00
2023-03-18T20:52:26.908Z,94839.03
2023-03-18T20:54:57.168Z,94838.44
2023-03-18T20:57:25.436Z,94838.84
2023-03-18T20:59:53.291Z,94836.84
2023-03-18T21:02:31.657Z,94837.59
2023-03-18T21:05:01.625Z,94840.53
2023-03-18T21:07:30.768Z,94837.78
2023-03-18T21:10:00.170Z,94838.59
2023-03-18T21:12:28.167Z,94837.59
2023-03-18T21:14:56.017Z,94839.00
2023-03-18T21:17:25.950Z,94841.16
2023-03-18T21:20:00.720Z,94831.28
2023-03-18T21:22:33.364Z,94836.75
2023-03-18T21:25:02.938Z,94837.34
2023-03-18T21:27:31.038Z,94832.78
2023-03-18T21:29:58.918Z,94838.88
2023-03-18T21:32:28.499Z,94842.00
2023-03-18T21:34:57.109Z,94842.97
2023-03-18T21:37:26.583Z,94844.53
2023-03-18T21:39:54.564Z,94846.50
2023-03-18T21:42:26.528Z,94838.25
2023-03-18T21:44:55.176Z,94838.16
2023-03-18T21:47:24.335Z,94829.88
2023-03-18T21:49:52.757Z,94824.06
2023-03-18T21:52:31.393Z,94830.72
2023-03-18T21:55:00.136Z,94829.53
2023-03-18T21:57:30.907Z,94831.78
2023-03-18T21:59:58.838Z,94823.88
2023-03-18T22:02:29.347Z,94819.63
2023-03-18T22:04:58.939Z,94819.16
2023-03-18T22:07:28.229Z,94830.47
2023-03-18T22:09:56.314Z,94827.28
2023-03-18T22:12:26.192Z,94820.28
2023-03-18T22:14:56.469Z,94818.63
2023-03-18T22:17:26.291Z,94818.44
2023-03-18T22:19:55.491Z,94815.84
2023-03-18T22:22:25.586Z,94821.28
2023-03-18T22:24:53.417Z,94816.59
2023-03-18T22:27:23.440Z,94820.31
2023-03-18T22:29:52.331Z,94825.66
2023-03-18T22:32:38.836Z,94822.72
2023-03-18T22:35:13.617Z,94818.41
2023-03-18T22:37:42.392Z,94816.78
2023-03-18T22:40:16.662Z,94812.69
2023-03-18T22:42:44.854Z,94812.28
2023-03-18T22:45:21.196Z,94816.41
2023-03-18T22:47:51.480Z,94822.06
2023-03-18T22:50:20.470Z,94817.16
2023-03-18T22:52:49.778Z,94823.16
2023-03-18T22:55:21.938Z,94826.09
2023-03-18T22:57:50.071Z,94813.50
2023-03-18T23:00:24.021Z,94822.41
2023-03-18T23:02:54.223Z,94824.88
2023-03-18T23:05:23.726Z,94823.44
2023-03-18T23:07:52.471Z,94826.63
2023-03-18T23:10:21.505Z,94825.84
2023-03-18T23:12:50.153Z,94830.31
2023-03-18T23:15:20.712Z,94832.16
2023-03-18T23:17:50.399Z,94829.66
2023-03-18T23:20:19.915Z,94828.41
2023-03-18T23:22:47.787Z,94825.78
2023-03-18T23:25:18.151Z,94823.16
2023-03-18T23:27:46.500Z,94831.81
2023-03-18T23:30:14.866Z,94830.66
2023-03-18T23:32:42.943Z,94834.03
2023-03-18T23:35:11.473Z,94842.00
2023-03-18T23:37:40.744Z,94851.63
2023-03-18T23:40:11.576Z,94846.25
2023-03-18T23:42:39.402Z,94852.09
2023-03-18T23:45:08.878Z,94856.22
2023-03-18T23:47:36.789Z,94853.25
2023-03-18T23:50:05.430Z,94852.81
2023-03-18T23:52:33.744Z,94851.16
2023-03-18T23:55:02.958Z,94845.91
2023-03-18T23:57:30.739Z,94841.97
2023-03-18T23:59:58.546Z,94845.38
